createdAt,value
2022-11-05T00:00:31.983Z,100913.78
2022-11-05T00:03:19.164Z,100910.09
2022-11-05T00:06:07.273Z,100910.94
2022-11-05T00:08:53.556Z,100911.81
2022-11-05T00:11:42.377Z,100917.28
2022-11-05T00:14:28.308Z,100925.16
2022-11-05T00:16:56.734Z,100922.50
2022-11-05T00:19:26.368Z,100918.13
2022-11-05T00:22:12.384Z,100917.16
2022-11-05T00:24:58.251Z,100927.56
2022-11-05T00:27:26.547Z,100933.75
2022-11-05T00:29:54.805Z,100939.25
2022-11-05T00:32:24.459Z,100941.63
2022-11-05T00:34:55.185Z,100943.03
2022-11-05T00:37:23.558Z,100940.38
2022-11-05T00:39:51.780Z,100943.19
2022-11-05T00:42:37.704Z,100944.16
2022-11-05T00:45:07.664Z,100942.75
2022-11-05T00:47:53.894Z,100938.81
2022-11-05T00:50:25.702Z,100939.38
2022-11-05T00:53:13.007Z,100933.19
2022-11-05T00:55:55.389Z,100823.78
2022-11-05T00:58:48.425Z,100929.25
2022-11-05T01:01:36.686Z,100924.19
2022-11-05T01:04:11.045Z,100921.09
2022-11-05T01:06:43.143Z,100930.78
2022-11-05T01:09:11.533Z,100933.75
2022-11-05T01:11:43.284Z,100936.56
2022-11-05T01:14:16.037Z,100892.66
2022-11-05T01:16:45.470Z,100937.00
2022-11-05T01:19:15.245Z,100950.22
2022-11-05T01:21:44.985Z,100951.19
2022-11-05T01:24:20.244Z,100949.22
2022-11-05T01:27:04.819Z,100951.19
2022-11-05T01:29:53.490Z,100954.56
2022-11-05T01:32:30.207Z,100953.59
2022-11-05T01:35:09.154Z,100960.91
2022-11-05T01:37:54.914Z,100947.66
2022-11-05T01:40:44.950Z,100951.47
2022-11-05T01:43:17.135Z,100938.81
2022-11-05T01:45:48.625Z,100947.53
2022-11-05T01:48:19.560Z,100950.34
2022-11-05T01:50:59.653Z,100936.13
2022-11-05T01:53:34.821Z,100891.81
2022-11-05T01:56:07.095Z,100938.81
2022-11-05T01:58:39.438Z,100949.78
2022-11-05T02:01:08.002Z,100953.44
2022-11-05T02:03:37.138Z,100959.75
2022-11-05T02:06:09.412Z,100960.03
2022-11-05T02:08:55.392Z,100902.75
2022-11-05T02:11:24.106Z,100974.13
2022-11-05T02:13:52.765Z,100975.94
2022-11-05T02:16:35.630Z,100973.41
2022-11-05T02:19:15.216Z,100974.41
2022-11-05T02:22:20.512Z,100987.75
2022-11-05T02:25:15.764Z,100984.25
2022-11-05T02:28:18.443Z,100991.41
2022-11-05T02:30:55.315Z,100988.16
2022-11-05T02:33:33.814Z,100983.53
2022-11-05T02:36:15.748Z,100992.53
2022-11-05T02:38:53.689Z,100992.53
2022-11-05T02:41:31.648Z,100888.91
2022-11-05T02:44:10.084Z,100992.09
2022-11-05T02:46:48.457Z,100996.03
2022-11-05T02:49:29.196Z,100922.84
2022-11-05T02:52:00.098Z,100991.38
2022-11-05T02:54:34.562Z,100989.44
2022-11-05T02:57:05.080Z,100983.09
2022-11-05T02:59:33.421Z,100974.81
2022-11-05T03:02:05.306Z,100976.50
2022-11-05T03:04:34.056Z,100979.31
2022-11-05T03:07:25.109Z,100978.47
2022-11-05T03:10:28.196Z,100982.38
2022-11-05T03:13:11.223Z,100946.06
2022-11-05T03:15:51.032Z,100967.91
2022-11-05T03:18:26.999Z,100965.81
2022-11-05T03:21:03.734Z,100970.03
2022-11-05T03:23:37.153Z,100981.31
2022-11-05T03:26:11.778Z,100977.50
2022-11-05T03:28:44.391Z,100981.88
2022-11-05T03:31:15.726Z,100983.56
2022-11-05T03:33:47.771Z,100989.03
2022-11-05T03:36:21.597Z,100999.88
2022-11-05T03:38:54.717Z,101009.00
2022-11-05T03:41:25.320Z,101009.41
2022-11-05T03:44:03.317Z,101009.56
2022-11-05T03:46:36.247Z,101013.91
2022-11-05T03:49:09.901Z,101008.72
2022-11-05T03:51:45.077Z,101015.88
2022-11-05T03:54:14.769Z,101028.97
2022-11-05T03:56:50.289Z,101034.59
2022-11-05T03:59:19.333Z,101039.94
2022-11-05T04:01:49.188Z,100900.63
2022-11-05T04:04:19.086Z,101047.81
2022-11-05T04:07:04.896Z,101055.97
2022-11-05T04:09:50.988Z,101063.28
2022-11-05T04:12:37.023Z,101047.94
2022-11-05T04:15:05.717Z,101065.94
2022-11-05T04:17:32.948Z,101069.47
2022-11-05T04:20:20.080Z,101076.63
2022-11-05T04:23:05.939Z,101083.34
2022-11-05T04:25:34.446Z,101085.75
2022-11-05T04:28:02.710Z,101061.06
2022-11-05T04:30:30.005Z,101083.59
2022-11-05T04:33:04.352Z,101065.13
2022-11-05T04:35:36.920Z,101042.84
2022-11-05T04:38:05.876Z,101088.06
2022-11-05T04:40:34.462Z,101092.56
2022-11-05T04:43:02.968Z,101103.69
2022-11-05T04:45:34.405Z,101105.25
2022-11-05T04:48:03.114Z,101112.41
2022-11-05T04:50:33.613Z,101113.53
2022-11-05T04:53:02.118Z,101114.50
2022-11-05T04:55:30.477Z,101114.75
2022-11-05T04:57:58.812Z,101118.41
2022-11-05T05:00:27.099Z,101120.94
2022-11-05T05:02:55.633Z,101112.94
2022-11-05T05:05:23.870Z,101110.28
2022-11-05T05:07:53.572Z,101101.53
2022-11-05T05:10:21.802Z,101106.28
2022-11-05T05:12:50.128Z,101102.06
2022-11-05T05:15:18.429Z,101101.22
2022-11-05T05:17:52.413Z,101107.41
2022-11-05T05:20:38.371Z,101114.16
2022-11-05T05:23:08.276Z,101117.34
2022-11-05T05:25:36.853Z,101129.00
2022-11-05T05:28:05.248Z,101129.25
2022-11-05T05:30:33.499Z,101127.56
2022-11-05T05:33:04.437Z,101133.88
2022-11-05T05:35:32.747Z,101140.44
2022-11-05T05:38:01.057Z,101127.44
2022-11-05T05:40:30.758Z,101144.22
2022-11-05T05:42:59.061Z,101139.72
2022-11-05T05:45:27.308Z,101145.41
2022-11-05T05:47:56.908Z,101079.97
2022-11-05T05:50:25.248Z,101144.63
2022-11-05T05:52:53.865Z,101127.50
2022-11-05T05:55:22.224Z,101156.03
2022-11-05T05:57:52.141Z,101157.84
2022-11-05T06:00:20.355Z,101164.44
2022-11-05T06:02:48.719Z,101162.00
2022-11-05T06:05:17.386Z,101100.75
2022-11-05T06:07:45.692Z,101160.38
2022-11-05T06:10:14.002Z,101173.69
2022-11-05T06:12:43.649Z,101127.50
2022-11-05T06:15:13.448Z,101169.94
2022-11-05T06:17:41.763Z,101124.47
2022-11-05T06:20:11.721Z,101186.56
2022-11-05T06:22:40.527Z,101193.72
2022-11-05T06:25:09.916Z,101199.78
2022-11-05T06:27:38.261Z,101208.50
2022-11-05T06:30:07.480Z,101213.84
2022-11-05T06:32:37.248Z,101215.69
2022-11-05T06:35:06.043Z,101215.81
2022-11-05T06:37:34.663Z,101224.19
2022-11-05T06:40:02.926Z,101233.06
2022-11-05T06:42:32.445Z,101229.28
2022-11-05T06:45:00.728Z,101231.97
2022-11-05T06:47:29.122Z,101236.19
2022-11-05T06:49:58.730Z,101231.69
2022-11-05T06:52:31.292Z,101243.94
2022-11-05T06:54:59.702Z,101239.72
2022-11-05T06:57:28.970Z,101240.56
2022-11-05T07:00:01.330Z,101239.72
2022-11-05T07:02:31.670Z,101241.41
2022-11-05T07:05:01.273Z,101244.28
2022-11-05T07:07:29.672Z,101237.84
2022-11-05T07:09:57.961Z,101244.34
2022-11-05T07:12:26.254Z,101242.00
2022-11-05T07:14:54.509Z,101242.47
2022-11-05T07:17:23.681Z,101258.72
2022-11-05T07:19:51.966Z,101259.34
2022-11-05T07:22:21.947Z,101271.16
2022-11-05T07:24:50.523Z,101268.03
2022-11-05T07:27:19.097Z,101264.22
2022-11-05T07:29:47.436Z,101275.19
2022-11-05T07:32:15.705Z,101269.88
2022-11-05T07:34:44.987Z,101272.41
2022-11-05T07:37:16.635Z,101281.91
2022-11-05T07:39:46.408Z,101286.63
2022-11-05T07:42:15.135Z,101242.00
2022-11-05T07:44:43.427Z,101286.81
2022-11-05T07:47:11.826Z,101295.41
2022-11-05T07:49:40.244Z,101295.38
2022-11-05T07:52:08.493Z,101296.22
2022-11-05T07:54:36.814Z,101299.28
2022-11-05T07:57:07.478Z,101306.66
2022-11-05T07:59:35.825Z,101308.50
2022-11-05T08:02:04.208Z,101304.97
2022-11-05T08:04:32.697Z,101315.19
2022-11-05T08:07:00.871Z,101315.41
2022-11-05T08:09:29.112Z,101305.81
2022-11-05T08:12:02.614Z,101326.41
2022-11-05T08:14:32.928Z,101322.44
2022-11-05T08:17:01.199Z,101322.22
2022-11-05T08:19:29.512Z,101322.13
2022-11-05T08:21:57.854Z,101326.31
2022-11-05T08:24:26.181Z,101328.53
2022-11-05T08:26:54.652Z,101331.31
2022-11-05T08:29:23.201Z,101334.63
2022-11-05T08:31:52.839Z,101330.94
2022-11-05T08:34:22.121Z,101343.44
2022-11-05T08:36:50.350Z,101333.31
2022-11-05T08:39:20.032Z,101344.50
2022-11-05T08:41:48.487Z,101356.63
2022-11-05T08:44:16.746Z,101353.66
2022-11-05T08:46:45.121Z,101347.03
2022-11-05T08:49:14.875Z,101357.75
2022-11-05T08:51:44.984Z,101313.63
2022-11-05T08:54:13.469Z,101346.28
2022-11-05T08:56:41.679Z,101336.47
2022-11-05T08:59:10.170Z,101348.13
2022-11-05T09:01:38.618Z,101342.53
2022-11-05T09:04:07.094Z,101347.69
2022-11-05T09:06:36.769Z,101349.97
2022-11-05T09:09:05.343Z,101344.19
2022-11-05T09:11:57.427Z,101343.75
2022-11-05T09:14:22.105Z,101338.22
2022-11-05T09:16:50.369Z,101336.63
2022-11-05T09:19:18.644Z,101335.09
2022-11-05T09:21:48.361Z,101343.69
2022-11-05T09:24:16.661Z,101343.69
2022-11-05T09:26:44.922Z,101350.91
2022-11-05T09:29:14.482Z,101353.91
2022-11-05T09:31:43.336Z,101359.28
2022-11-05T09:34:11.622Z,101347.69
2022-11-05T09:36:39.976Z,101357.59
2022-11-05T09:39:09.807Z,101358.81
2022-11-05T09:41:41.082Z,101353.97
2022-11-05T09:44:15.097Z,101360.88
2022-11-05T09:46:46.788Z,101358.34
2022-11-05T09:49:25.748Z,101334.69
2022-11-05T09:51:55.462Z,101371.47
2022-11-05T09:54:27.483Z,101312.94
2022-11-05T09:56:57.095Z,101362.34
2022-11-05T09:59:30.848Z,101364.59
2022-11-05T10:02:04.525Z,101369.66
2022-11-05T10:04:35.480Z,101365.47
2022-11-05T10:07:07.508Z,101364.31
2022-11-05T10:09:46.496Z,101368.00
2022-11-05T10:12:21.841Z,101366.31
2022-11-05T10:14:54.943Z,101350.59
2022-11-05T10:17:27.572Z,101220.75
2022-11-05T10:20:03.938Z,101381.53
2022-11-05T10:22:32.294Z,101367.94
2022-11-05T10:25:01.992Z,101370.31
2022-11-05T10:27:33.837Z,101373.56
2022-11-05T10:30:02.420Z,101373.25
2022-11-05T10:32:34.248Z,101379.88
2022-11-05T10:35:05.319Z,101388.47
2022-11-05T10:37:39.589Z,101377.38
2022-11-05T10:40:34.201Z,101386.69
2022-11-05T10:43:06.948Z,101395.31
2022-11-05T10:45:46.742Z,101393.16
2022-11-05T10:48:44.096Z,101377.53
2022-11-05T10:51:13.332Z,101375.53
2022-11-05T10:53:51.175Z,101380.56
2022-11-05T10:56:38.684Z,101368.94
2022-11-05T10:59:20.401Z,101376.94
2022-11-05T11:01:48.915Z,101376.47
2022-11-05T11:04:24.974Z,101375.16
2022-11-05T11:06:55.460Z,101364.69
2022-11-05T11:09:26.991Z,101384.16
2022-11-05T11:12:03.146Z,101376.59
2022-11-05T11:14:31.516Z,101381.81
2022-11-05T11:17:19.221Z,101369.56
2022-11-05T11:19:47.593Z,101370.63
2022-11-05T11:22:21.103Z,101342.78
2022-11-05T11:24:52.036Z,101364.75
2022-11-05T11:27:24.595Z,101360.91
2022-11-05T11:29:59.018Z,101351.44
2022-11-05T11:32:33.257Z,101355.31
2022-11-05T11:35:01.983Z,101356.16
2022-11-05T11:37:35.930Z,101318.69
2022-11-05T11:40:14.810Z,101340.66
2022-11-05T11:42:48.875Z,101338.16
2022-11-05T11:45:19.948Z,101330.31
2022-11-05T11:47:50.770Z,101313.97
2022-11-05T11:50:36.395Z,101311.13
2022-11-05T11:53:36.278Z,101306.22
2022-11-05T11:56:13.807Z,101270.09
2022-11-05T11:58:46.623Z,101303.34
2022-11-05T12:01:47.125Z,101300.81
2022-11-05T12:04:26.674Z,101296.63
2022-11-05T12:07:06.371Z,101291.22
2022-11-05T12:09:50.111Z,101304.88
2022-11-05T12:12:24.773Z,101299.31
2022-11-05T12:14:59.642Z,101309.25
2022-11-05T12:17:44.277Z,101296.97
2022-11-05T12:20:31.229Z,101303.34
2022-11-05T12:23:19.107Z,101298.47
2022-11-05T12:25:53.169Z,101295.25
2022-11-05T12:29:12.236Z,101299.31
2022-11-05T12:31:45.783Z,101307.41
2022-11-05T12:34:32.811Z,101305.41
2022-11-05T12:37:15.868Z,101305.91
2022-11-05T12:39:50.209Z,101230.16
2022-11-05T12:42:32.985Z,101310.97
2022-11-05T12:45:04.620Z,101299.19
2022-11-05T12:47:50.758Z,101308.78
2022-11-05T12:50:27.150Z,101308.09
2022-11-05T12:53:18.447Z,101307.41
2022-11-05T12:55:49.636Z,101295.94
2022-11-05T12:58:23.976Z,101292.56
2022-11-05T13:00:58.929Z,101289.88
2022-11-05T13:03:40.327Z,101289.88
2022-11-05T13:06:13.309Z,101288.34
2022-11-05T13:08:49.182Z,101293.94
2022-11-05T13:11:22.732Z,101290.56
2022-11-05T13:14:03.666Z,101280.63
2022-11-05T13:16:36.901Z,101269.09
2022-11-05T13:19:15.029Z,101285.47
2022-11-05T13:21:45.120Z,101282.94
2022-11-05T13:24:19.267Z,101254.75
2022-11-05T13:26:53.907Z,101280.06
2022-11-05T13:29:27.748Z,101250.69
2022-11-05T13:32:12.273Z,101254.44
2022-11-05T13:34:42.252Z,101289.31
2022-11-05T13:37:31.488Z,101275.00
2022-11-05T13:40:04.812Z,101280.56
2022-11-05T13:43:01.424Z,101283.59
2022-11-05T13:46:08.007Z,101284.78
2022-11-05T13:49:17.481Z,101279.03
2022-11-05T13:51:54.666Z,101271.97
2022-11-05T13:55:10.533Z,101271.28
2022-11-05T13:58:03.604Z,101241.94
2022-11-05T14:00:37.736Z,101257.44
2022-11-05T14:03:15.587Z,101258.47
2022-11-05T14:05:45.316Z,101253.06
2022-11-05T14:08:21.373Z,101257.09
2022-11-05T14:11:00.975Z,101252.06
2022-11-05T14:13:34.829Z,101251.91
2022-11-05T14:16:07.769Z,101241.44
2022-11-05T14:18:42.895Z,101251.38
2022-11-05T14:21:48.380Z,101240.94
2022-11-05T14:24:28.144Z,101243.59
2022-11-05T14:27:34.032Z,101252.66
2022-11-05T14:30:02.412Z,101245.56
2022-11-05T14:32:45.228Z,101239.19
2022-11-05T14:35:37.070Z,101234.28
2022-11-05T14:38:06.736Z,101231.22
2022-11-05T14:40:38.956Z,101243.00
2022-11-05T14:43:17.837Z,101231.69
2022-11-05T14:45:56.089Z,101231.69
2022-11-05T14:48:32.297Z,101235.75
2022-11-05T14:51:01.050Z,101233.75
2022-11-05T14:53:37.492Z,101235.13
2022-11-05T14:56:10.966Z,101236.13
2022-11-05T14:58:40.694Z,101192.28
2022-11-05T15:01:10.451Z,101235.28
2022-11-05T15:04:02.264Z,101237.81
2022-11-05T15:06:33.496Z,101239.50
2022-11-05T15:09:27.973Z,101245.41
2022-11-05T15:12:17.796Z,101254.31
2022-11-05T15:14:55.973Z,101246.25
2022-11-05T15:17:30.059Z,101250.94
2022-11-05T15:20:09.194Z,101260.88
2022-11-05T15:22:40.813Z,101246.22
2022-11-05T15:25:19.188Z,101259.19
2022-11-05T15:27:58.805Z,101266.44
2022-11-05T15:30:27.804Z,101263.25
2022-11-05T15:32:56.081Z,101276.72
2022-11-05T15:35:28.005Z,101270.66
2022-11-05T15:38:01.995Z,101273.81
2022-11-05T15:40:33.415Z,101282.38
2022-11-05T15:43:20.788Z,101281.00
2022-11-05T15:46:07.644Z,101286.19
2022-11-05T15:48:37.135Z,101285.84
2022-11-05T15:51:05.635Z,101292.91
2022-11-05T15:54:23.755Z,101291.38
2022-11-05T15:56:50.345Z,101294.19
2022-11-05T15:59:21.667Z,101289.25
2022-11-05T16:01:52.494Z,101301.50
2022-11-05T16:04:24.521Z,101297.47
2022-11-05T16:06:55.145Z,101264.81
2022-11-05T16:09:25.930Z,101305.81
2022-11-05T16:12:14.049Z,101311.19
2022-11-05T16:14:43.999Z,101306.44
2022-11-05T16:17:20.337Z,101308.59
2022-11-05T16:19:49.860Z,101312.06
2022-11-05T16:22:18.615Z,101290.06
2022-11-05T16:24:47.765Z,101315.47
2022-11-05T16:27:19.809Z,101309.34
2022-11-05T16:29:55.559Z,101293.38
2022-11-05T16:32:30.674Z,101309.66
2022-11-05T16:35:02.083Z,101310.19
2022-11-05T16:37:36.739Z,101315.09
2022-11-05T16:40:14.377Z,101312.22
2022-11-05T16:42:43.473Z,101316.91
2022-11-05T16:45:14.932Z,101313.28
2022-11-05T16:47:44.738Z,101300.06
2022-11-05T16:50:25.450Z,101299.25
2022-11-05T16:52:54.194Z,101294.63
2022-11-05T16:55:22.620Z,101296.53
2022-11-05T16:57:53.583Z,101288.47
2022-11-05T17:00:24.266Z,101294.13
2022-11-05T17:02:53.180Z,101299.94
2022-11-05T17:05:24.367Z,101293.31
2022-11-05T17:07:53.369Z,101294.59
2022-11-05T17:10:22.483Z,101297.72
2022-11-05T17:12:53.128Z,101303.66
2022-11-05T17:15:25.862Z,101300.56
2022-11-05T17:17:55.703Z,101309.19
2022-11-05T17:20:35.143Z,101308.75
2022-11-05T17:23:07.396Z,101306.81
2022-11-05T17:25:36.186Z,101321.78
2022-11-05T17:28:05.673Z,101315.16
2022-11-05T17:30:35.870Z,101315.28
2022-11-05T17:33:04.347Z,101320.78
2022-11-05T17:35:33.322Z,101311.34
2022-11-05T17:38:01.625Z,101321.50
2022-11-05T17:40:30.460Z,101308.38
2022-11-05T17:42:58.813Z,101334.47
2022-11-05T17:45:27.018Z,101330.81
2022-11-05T17:47:56.744Z,101338.84
2022-11-05T17:50:25.044Z,101348.59
2022-11-05T17:52:53.338Z,101347.88
2022-11-05T17:55:21.624Z,101348.97
2022-11-05T17:57:51.630Z,101356.16
2022-11-05T18:00:22.711Z,101352.94
2022-11-05T18:02:53.010Z,101357.88
2022-11-05T18:05:24.242Z,101335.00
2022-11-05T18:07:52.810Z,101355.31
2022-11-05T18:10:21.072Z,101349.66
2022-11-05T18:12:49.435Z,101354.75
2022-11-05T18:15:18.535Z,101342.75
2022-11-05T18:17:47.363Z,101337.81
2022-11-05T18:20:19.204Z,101336.53
2022-11-05T18:22:50.784Z,101350.06
2022-11-05T18:25:19.487Z,101346.94
2022-11-05T18:27:47.733Z,101347.25
2022-11-05T18:30:17.091Z,101343.28
2022-11-05T18:32:45.667Z,101344.25
2022-11-05T18:35:14.692Z,101343.22
2022-11-05T18:37:43.474Z,101348.00
2022-11-05T18:40:14.347Z,101341.53
2022-11-05T18:42:42.677Z,101328.03
2022-11-05T18:45:12.674Z,101339.00
2022-11-05T18:47:41.189Z,101324.84
2022-11-05T18:50:10.597Z,101329.28
2022-11-05T18:52:39.001Z,101332.75
2022-11-05T18:55:08.536Z,101329.16
2022-11-05T18:57:39.313Z,101322.38
2022-11-05T19:00:08.640Z,101329.16
2022-11-05T19:02:37.003Z,101323.81
2022-11-05T19:07:54.056Z,101332.66
2022-11-05T19:10:22.344Z,101338.16
2022-11-05T19:12:52.149Z,101344.47
2022-11-05T19:15:20.676Z,101343.44
2022-11-05T19:17:48.992Z,101338.63
2022-11-05T19:20:17.823Z,101330.97
2022-11-05T19:22:46.124Z,101333.19
2022-11-05T19:25:14.388Z,101321.06
2022-11-05T19:27:43.770Z,101322.25
2022-11-05T19:30:13.854Z,101321.88
2022-11-05T19:32:42.079Z,101329.25
2022-11-05T19:35:10.755Z,101327.59
2022-11-05T19:37:39.055Z,101335.16
2022-11-05T19:40:08.924Z,101335.41
2022-11-05T19:42:37.222Z,101348.69
2022-11-05T19:45:23.457Z,101344.47
2022-11-05T19:47:55.758Z,101345.94
2022-11-05T19:50:24.031Z,101353.22
2022-11-05T19:52:52.320Z,101353.34
2022-11-05T19:55:20.596Z,101359.31
2022-11-05T19:57:48.962Z,101358.34
2022-11-05T20:00:17.773Z,101365.69
2022-11-05T20:02:46.586Z,101349.31
2022-11-05T20:05:18.366Z,101323.75
2022-11-05T20:07:52.308Z,101368.13
2022-11-05T20:10:21.277Z,101376.03
2022-11-05T20:12:49.553Z,101379.28
2022-11-05T20:15:19.811Z,101383.66
2022-11-05T20:17:52.222Z,101371.88
2022-11-05T20:20:22.310Z,101375.78
2022-11-05T20:22:52.891Z,101364.13
2022-11-05T20:25:21.158Z,101361.34
2022-11-05T20:27:49.412Z,101375.09
2022-11-05T20:30:18.778Z,101384.19
2022-11-05T20:32:47.184Z,101369.28
2022-11-05T20:35:16.476Z,101326.97
2022-11-05T20:37:54.089Z,101365.03
2022-11-05T20:40:23.242Z,101381.28
2022-11-05T20:42:51.743Z,101377.44
2022-11-05T20:45:21.112Z,101374.03
2022-11-05T20:47:50.545Z,101254.94
2022-11-05T20:50:19.410Z,101385.38
2022-11-05T20:52:50.088Z,101383.56
2022-11-05T20:55:19.178Z,101376.53
2022-11-05T20:57:47.526Z,101365.63
2022-11-05T21:00:17.067Z,101364.88
2022-11-05T21:02:46.495Z,101361.00
2022-11-05T21:05:14.999Z,101366.94
2022-11-05T21:07:44.480Z,101373.25
2022-11-05T21:10:14.288Z,101375.91
2022-11-05T21:12:42.906Z,101368.38
2022-11-05T21:15:12.769Z,101363.78
2022-11-05T21:17:41.488Z,101361.47
2022-11-05T21:20:10.702Z,101364.72
2022-11-05T21:22:39.152Z,101361.19
2022-11-05T21:25:08.871Z,101366.13
2022-11-05T21:27:42.576Z,101361.75
2022-11-05T21:30:13.982Z,101356.44
2022-11-05T21:32:42.755Z,101356.94
2022-11-05T21:35:11.633Z,101357.69
2022-11-05T21:37:41.257Z,101361.91
2022-11-05T21:40:12.776Z,101355.50
2022-11-05T21:42:42.834Z,101353.81
2022-11-05T21:45:12.152Z,101350.66
2022-11-05T21:47:40.436Z,101344.34
2022-11-05T21:50:09.858Z,101342.75
2022-11-05T21:53:10.199Z,101341.53
2022-11-05T21:55:59.665Z,101362.97
2022-11-05T21:58:46.803Z,101367.09
2022-11-05T22:01:15.183Z,101372.00
2022-11-05T22:03:43.637Z,101366.41
2022-11-05T22:06:12.220Z,101359.31
2022-11-05T22:08:40.645Z,101363.78
2022-11-05T22:11:08.987Z,101267.44
2022-11-05T22:13:38.754Z,101361.31
2022-11-05T22:16:08.771Z,101367.41
2022-11-05T22:18:37.114Z,101373.59
2022-11-05T22:21:05.631Z,101376.47
2022-11-05T22:23:34.023Z,101371.94
2022-11-05T22:26:03.645Z,101369.63
2022-11-05T22:28:31.963Z,101371.84
2022-11-05T22:31:01.753Z,101354.78
2022-11-05T22:33:30.117Z,101346.69
2022-11-05T22:35:58.424Z,101341.03
2022-11-05T22:38:26.733Z,101343.53
2022-11-05T22:40:55.249Z,101337.16
2022-11-05T22:43:23.654Z,101340.44
2022-11-05T22:45:53.641Z,101312.81
2022-11-05T22:48:23.677Z,101332.16
2022-11-05T22:50:52.411Z,101331.53
2022-11-05T22:53:21.004Z,101333.13
2022-11-05T22:55:49.357Z,101339.72
2022-11-05T22:58:18.828Z,101336.94
2022-11-05T23:00:47.193Z,101330.78
2022-11-05T23:03:15.624Z,101328.16
2022-11-05T23:05:45.493Z,101328.56
2022-11-05T23:08:31.345Z,101327.16
2022-11-05T23:11:17.369Z,101317.06
2022-11-05T23:13:46.128Z,101326.63
2022-11-05T23:16:31.845Z,101326.38
2022-11-05T23:19:17.747Z,101324.59
2022-11-05T23:22:04.790Z,101321.47
2022-11-05T23:24:33.288Z,101316.81
2022-11-05T23:27:01.799Z,101315.22
2022-11-05T23:29:33.753Z,101309.34
2022-11-05T23:32:19.449Z,101310.41
2022-11-05T23:34:48.804Z,101306.91
2022-11-05T23:37:39.041Z,101313.81
2022-11-05T23:40:10.481Z,101321.66
2022-11-05T23:42:56.555Z,101320.81
2022-11-05T23:45:50.923Z,101312.31
2022-11-05T23:48:24.540Z,101301.25
2022-11-05T23:50:57.770Z,101305.69
2022-11-05T23:53:28.074Z,101302.63
2022-11-05T23:56:01.460Z,101285.03
2022-11-05T23:58:30.423Z,101301.41
